sensor_id;sensor_type;location;lat;lon;timestamp;P1;durP1;ratioP1;P2;durP2;ratioP2
6842;SDS011;3460;52.028;8.916;2024-03-07T00:02:05;17.07;;;11.23;;
6842;SDS011;3460;52.028;8.916;2024-03-07T00:04:32;16.97;;;10.73;;
6842;SDS011;3460;52.028;8.916;2024-03-07T00:07:00;18.53;;;10.73;;
6842;SDS011;3460;52.028;8.916;2024-03-07T00:09:28;16.30;;;11.23;;
6842;SDS011;3460;52.028;8.916;2024-03-07T00:11:55;14.00;;;10.73;;
6842;SDS011;3460;52.028;8.916;2024-03-07T00:14:22;16.83;;;10.87;;
6842;SDS011;3460;52.028;8.916;2024-03-07T00:16:51;16.17;;;10.97;;
6842;SDS011;3460;52.028;8.916;2024-03-07T00:19:20;16.20;;;10.57;;
6842;SDS011;3460;52.028;8.916;2024-03-07T00:21:50;15.37;;;10.47;;
6842;SDS011;3460;52.028;8.916;2024-03-07T00:24:17;15.27;;;10.53;;
6842;SDS011;3460;52.028;8.916;2024-03-07T00:26:44;16.87;;;11.07;;
6842;SDS011;3460;52.028;8.916;2024-03-07T00:29:11;16.70;;;11.07;;
6842;SDS011;3460;52.028;8.916;2024-03-07T00:31:37;16.80;;;10.63;;
6842;SDS011;3460;52.028;8.916;2024-03-07T00:34:04;15.60;;;10.57;;
6842;SDS011;3460;52.028;8.916;2024-03-07T00:36:33;16.00;;;10.30;;
6842;SDS011;3460;52.028;8.916;2024-03-07T00:38:59;16.03;;;11.10;;
6842;SDS011;3460;52.028;8.916;2024-03-07T00:41:26;17.97;;;11.33;;
6842;SDS011;3460;52.028;8.916;2024-03-07T00:43:53;16.80;;;11.13;;
6842;SDS011;3460;52.028;8.916;2024-03-07T00:46:20;17.23;;;11.17;;
6842;SDS011;3460;52.028;8.916;2024-03-07T00:48:46;17.53;;;12.03;;
6842;SDS011;3460;52.028;8.916;2024-03-07T00:51:13;16.50;;;10.80;;
6842;SDS011;3460;52.028;8.916;2024-03-07T00:53:41;20.80;;;12.53;;
6842;SDS011;3460;52.028;8.916;2024-03-07T00:56:08;15.33;;;11.17;;
6842;SDS011;3460;52.028;8.916;2024-03-07T00:58:35;16.10;;;11.00;;
6842;SDS011;3460;52.028;8.916;2024-03-07T01:01:02;18.47;;;11.33;;
6842;SDS011;3460;52.028;8.916;2024-03-07T01:03:29;18.13;;;11.63;;
6842;SDS011;3460;52.028;8.916;2024-03-07T01:05:56;16.67;;;11.37;;
6842;SDS011;3460;52.028;8.916;2024-03-07T01:08:23;15.43;;;10.77;;
6842;SDS011;3460;52.028;8.916;2024-03-07T01:10:51;16.80;;;10.83;;
6842;SDS011;3460;52.028;8.916;2024-03-07T01:13:18;19.93;;;12.07;;
6842;SDS011;3460;52.028;8.916;2024-03-07T01:15:47;17.23;;;11.07;;
6842;SDS011;3460;52.028;8.916;2024-03-07T01:18:14;16.17;;;11.40;;
6842;SDS011;3460;52.028;8.916;2024-03-07T01:20:42;16.03;;;10.70;;
6842;SDS011;3460;52.028;8.916;2024-03-07T01:23:09;17.30;;;11.40;;
6842;SDS011;3460;52.028;8.916;2024-03-07T01:25:36;20.10;;;11.27;;
6842;SDS011;3460;52.028;8.916;2024-03-07T01:28:04;16.40;;;11.57;;
6842;SDS011;3460;52.028;8.916;2024-03-07T01:30:31;17.33;;;11.50;;
6842;SDS011;3460;52.028;8.916;2024-03-07T01:32:58;17.53;;;11.03;;
6842;SDS011;3460;52.028;8.916;2024-03-07T01:35:25;17.30;;;10.90;;
6842;SDS011;3460;52.028;8.916;2024-03-07T01:37:51;21.10;;;12.33;;
6842;SDS011;3460;52.028;8.916;2024-03-07T01:40:19;20.27;;;12.73;;
6842;SDS011;3460;52.028;8.916;2024-03-07T01:42:46;21.97;;;11.97;;
6842;SDS011;3460;52.028;8.916;2024-03-07T01:45:15;21.80;;;12.67;;
6842;SDS011;3460;52.028;8.916;2024-03-07T01:47:43;20.87;;;12.93;;
6842;SDS011;3460;52.028;8.916;2024-03-07T01:50:10;17.27;;;11.80;;
6842;SDS011;3460;52.028;8.916;2024-03-07T01:52:39;17.83;;;12.00;;
6842;SDS011;3460;52.028;8.916;2024-03-07T01:55:07;20.63;;;12.70;;
6842;SDS011;3460;52.028;8.916;2024-03-07T01:57:35;16.60;;;11.13;;
6842;SDS011;3460;52.028;8.916;2024-03-07T02:00:02;16.83;;;11.73;;
6842;SDS011;3460;52.028;8.916;2024-03-07T02:02:33;17.90;;;11.10;;
6842;SDS011;3460;52.028;8.916;2024-03-07T02:05:00;16.53;;;11.57;;
6842;SDS011;3460;52.028;8.916;2024-03-07T02:07:27;16.17;;;11.90;;
6842;SDS011;3460;52.028;8.916;2024-03-07T02:09:58;20.87;;;11.63;;
6842;SDS011;3460;52.028;8.916;2024-03-07T02:12:26;15.93;;;10.87;;
6842;SDS011;3460;52.028;8.916;2024-03-07T02:14:54;20.10;;;12.07;;
6842;SDS011;3460;52.028;8.916;2024-03-07T02:17:22;19.70;;;12.13;;
6842;SDS011;3460;52.028;8.916;2024-03-07T02:19:51;20.93;;;13.00;;
6842;SDS011;3460;52.028;8.916;2024-03-07T02:22:19;22.20;;;12.73;;
6842;SDS011;3460;52.028;8.916;2024-03-07T02:24:46;19.23;;;13.23;;
6842;SDS011;3460;52.028;8.916;2024-03-07T02:27:13;20.53;;;13.67;;
6842;SDS011;3460;52.028;8.916;2024-03-07T02:29:40;17.90;;;11.93;;
6842;SDS011;3460;52.028;8.916;2024-03-07T02:32:07;20.33;;;12.57;;
6842;SDS011;3460;52.028;8.916;2024-03-07T02:34:34;20.13;;;12.83;;
6842;SDS011;3460;52.028;8.916;2024-03-07T02:37:01;21.30;;;12.73;;
6842;SDS011;3460;52.028;8.916;2024-03-07T02:39:30;21.10;;;12.30;;
6842;SDS011;3460;52.028;8.916;2024-03-07T02:41:56;20.20;;;12.90;;
6842;SDS011;3460;52.028;8.916;2024-03-07T02:44:23;19.87;;;12.90;;
6842;SDS011;3460;52.028;8.916;2024-03-07T02:46:50;19.77;;;12.97;;
6842;SDS011;3460;52.028;8.916;2024-03-07T02:49:17;20.70;;;13.87;;
6842;SDS011;3460;52.028;8.916;2024-03-07T02:51:45;19.80;;;12.50;;
6842;SDS011;3460;52.028;8.916;2024-03-07T02:54:12;20.27;;;13.37;;
6842;SDS011;3460;52.028;8.916;2024-03-07T02:56:40;19.97;;;11.93;;
6842;SDS011;3460;52.028;8.916;2024-03-07T02:59:07;21.83;;;13.43;;
6842;SDS011;3460;52.028;8.916;2024-03-07T03:01:34;18.33;;;13.23;;
6842;SDS011;3460;52.028;8.916;2024-03-07T03:04:01;21.10;;;12.37;;
6842;SDS011;3460;52.028;8.916;2024-03-07T03:06:27;19.43;;;12.87;;
6842;SDS011;3460;52.028;8.916;2024-03-07T03:08:54;20.47;;;13.20;;
6842;SDS011;3460;52.028;8.916;2024-03-07T03:11:21;22.43;;;13.60;;
6842;SDS011;3460;52.028;8.916;2024-03-07T03:13:49;19.87;;;12.20;;
6842;SDS011;3460;52.028;8.916;2024-03-07T03:16:16;21.40;;;12.97;;
6842;SDS011;3460;52.028;8.916;2024-03-07T03:18:43;19.70;;;12.70;;
6842;SDS011;3460;52.028;8.916;2024-03-07T03:21:09;20.10;;;12.93;;
6842;SDS011;3460;52.028;8.916;2024-03-07T03:23:36;19.63;;;12.67;;
6842;SDS011;3460;52.028;8.916;2024-03-07T03:26:03;20.53;;;13.40;;
6842;SDS011;3460;52.028;8.916;2024-03-07T03:28:30;21.30;;;12.17;;
6842;SDS011;3460;52.028;8.916;2024-03-07T03:30:58;20.07;;;12.60;;
6842;SDS011;3460;52.028;8.916;2024-03-07T03:33:25;17.63;;;12.10;;
6842;SDS011;3460;52.028;8.916;2024-03-07T03:35:51;20.23;;;13.07;;
6842;SDS011;3460;52.028;8.916;2024-03-07T03:38:20;18.53;;;12.97;;
6842;SDS011;3460;52.028;8.916;2024-03-07T03:40:47;19.50;;;13.03;;
6842;SDS011;3460;52.028;8.916;2024-03-07T03:43:13;18.83;;;12.63;;
6842;SDS011;3460;52.028;8.916;2024-03-07T03:45:40;18.70;;;12.20;;
6842;SDS011;3460;52.028;8.916;2024-03-07T03:48:08;21.97;;;12.07;;
6842;SDS011;3460;52.028;8.916;2024-03-07T03:50:35;16.93;;;12.20;;
6842;SDS011;3460;52.028;8.916;2024-03-07T03:53:02;22.93;;;13.20;;
6842;SDS011;3460;52.028;8.916;2024-03-07T03:55:30;19.27;;;12.33;;
6842;SDS011;3460;52.028;8.916;2024-03-07T03:57:58;22.50;;;12.93;;
6842;SDS011;3460;52.028;8.916;2024-03-07T04:00:24;20.43;;;12.97;;
6842;SDS011;3460;52.028;8.916;2024-03-07T04:02:51;21.07;;;13.07;;
6842;SDS011;3460;52.028;8.916;2024-03-07T04:05:19;21.57;;;13.47;;
6842;SDS011;3460;52.028;8.916;2024-03-07T04:07:46;23.83;;;13.87;;
6842;SDS011;3460;52.028;8.916;2024-03-07T04:10:14;21.37;;;12.60;;
6842;SDS011;3460;52.028;8.916;2024-03-07T04:12:42;20.40;;;12.90;;
6842;SDS011;3460;52.028;8.916;2024-03-07T04:15:10;19.07;;;12.13;;
6842;SDS011;3460;52.028;8.916;2024-03-07T04:17:38;20.90;;;13.20;;
6842;SDS011;3460;52.028;8.916;2024-03-07T04:20:06;23.03;;;13.07;;
6842;SDS011;3460;52.028;8.916;2024-03-07T04:22:37;19.07;;;12.60;;
6842;SDS011;3460;52.028;8.916;2024-03-07T04:25:05;20.40;;;13.13;;
6842;SDS011;3460;52.028;8.916;2024-03-07T04:27:33;20.13;;;13.20;;
6842;SDS011;3460;52.028;8.916;2024-03-07T04:30:02;20.30;;;13.47;;
6842;SDS011;3460;52.028;8.916;2024-03-07T04:32:30;20.57;;;13.70;;
6842;SDS011;3460;52.028;8.916;2024-03-07T04:34:56;20.10;;;13.10;;
6842;SDS011;3460;52.028;8.916;2024-03-07T04:37:24;22.37;;;13.27;;
6842;SDS011;3460;52.028;8.916;2024-03-07T04:39:53;20.70;;;14.00;;
6842;SDS011;3460;52.028;8.916;2024-03-07T04:42:20;23.50;;;12.77;;
6842;SDS011;3460;52.028;8.916;2024-03-07T04:44:47;23.83;;;14.30;;
6842;SDS011;3460;52.028;8.916;2024-03-07T04:47:14;21.80;;;13.30;;
6842;SDS011;3460;52.028;8.916;2024-03-07T04:49:42;22.33;;;14.00;;
6842;SDS011;3460;52.028;8.916;2024-03-07T04:52:09;21.23;;;13.40;;
6842;SDS011;3460;52.028;8.916;2024-03-07T04:54:35;24.93;;;13.57;;
6842;SDS011;3460;52.028;8.916;2024-03-07T04:57:04;24.77;;;13.80;;
6842;SDS011;3460;52.028;8.916;2024-03-07T04:59:30;21.07;;;13.37;;
6842;SDS011;3460;52.028;8.916;2024-03-07T05:01:57;21.50;;;13.77;;
6842;SDS011;3460;52.028;8.916;2024-03-07T05:04:24;23.93;;;13.10;;
6842;SDS011;3460;52.028;8.916;2024-03-07T05:06:54;20.13;;;12.90;;
6842;SDS011;3460;52.028;8.916;2024-03-07T05:09:22;17.10;;;12.17;;
6842;SDS011;3460;52.028;8.916;2024-03-07T05:11:50;20.13;;;12.57;;
6842;SDS011;3460;52.028;8.916;2024-03-07T05:14:19;20.00;;;12.70;;
6842;SDS011;3460;52.028;8.916;2024-03-07T05:16:46;22.37;;;13.10;;
6842;SDS011;3460;52.028;8.916;2024-03-07T05:19:29;22.80;;;13.67;;
6842;SDS011;3460;52.028;8.916;2024-03-07T05:21:56;22.83;;;14.07;;
6842;SDS011;3460;52.028;8.916;2024-03-07T05:24:24;21.73;;;13.37;;
6842;SDS011;3460;52.028;8.916;2024-03-07T05:26:51;21.60;;;13.53;;
6842;SDS011;3460;52.028;8.916;2024-03-07T05:29:19;20.80;;;13.33;;
6842;SDS011;3460;52.028;8.916;2024-03-07T05:31:46;20.20;;;13.17;;
6842;SDS011;3460;52.028;8.916;2024-03-07T05:34:13;21.13;;;12.83;;
6842;SDS011;3460;52.028;8.916;2024-03-07T05:36:41;24.57;;;12.90;;
6842;SDS011;3460;52.028;8.916;2024-03-07T05:39:10;18.47;;;12.23;;
6842;SDS011;3460;52.028;8.916;2024-03-07T05:41:36;21.10;;;12.73;;
6842;SDS011;3460;52.028;8.916;2024-03-07T05:44:03;23.27;;;13.17;;
6842;SDS011;3460;52.028;8.916;2024-03-07T05:46:35;19.97;;;13.33;;
6842;SDS011;3460;52.028;8.916;2024-03-07T05:49:06;22.27;;;13.03;;
6842;SDS011;3460;52.028;8.916;2024-03-07T05:51:33;23.30;;;13.37;;
6842;SDS011;3460;52.028;8.916;2024-03-07T05:54:00;20.47;;;13.37;;
6842;SDS011;3460;52.028;8.916;2024-03-07T05:56:27;20.90;;;13.30;;
6842;SDS011;3460;52.028;8.916;2024-03-07T05:58:54;21.60;;;12.73;;
6842;SDS011;3460;52.028;8.916;2024-03-07T06:01:21;19.77;;;13.50;;
6842;SDS011;3460;52.028;8.916;2024-03-07T06:03:52;21.17;;;14.20;;
6842;SDS011;3460;52.028;8.916;2024-03-07T06:06:19;21.07;;;13.63;;
6842;SDS011;3460;52.028;8.916;2024-03-07T06:08:46;17.57;;;12.23;;
6842;SDS011;3460;52.028;8.916;2024-03-07T06:11:13;21.10;;;13.47;;
6842;SDS011;3460;52.028;8.916;2024-03-07T06:13:44;19.10;;;12.80;;
6842;SDS011;3460;52.028;8.916;2024-03-07T06:16:12;21.50;;;14.63;;
6842;SDS011;3460;52.028;8.916;2024-03-07T06:18:39;23.47;;;13.53;;
6842;SDS011;3460;52.028;8.916;2024-03-07T06:21:07;20.87;;;13.30;;
6842;SDS011;3460;52.028;8.916;2024-03-07T06:23:35;23.47;;;13.70;;
6842;SDS011;3460;52.028;8.916;2024-03-07T06:26:01;22.03;;;13.80;;
6842;SDS011;3460;52.028;8.916;2024-03-07T06:28:37;22.17;;;14.17;;
6842;SDS011;3460;52.028;8.916;2024-03-07T06:31:04;24.43;;;15.17;;
6842;SDS011;3460;52.028;8.916;2024-03-07T06:33:32;27.63;;;15.87;;
6842;SDS011;3460;52.028;8.916;2024-03-07T06:35:59;25.17;;;15.33;;
6842;SDS011;3460;52.028;8.916;2024-03-07T06:38:28;26.47;;;16.27;;
6842;SDS011;3460;52.028;8.916;2024-03-07T06:40:55;23.33;;;15.30;;
6842;SDS011;3460;52.028;8.916;2024-03-07T06:43:22;25.60;;;16.07;;
6842;SDS011;3460;52.028;8.916;2024-03-07T06:45:49;23.73;;;14.67;;
6842;SDS011;3460;52.028;8.916;2024-03-07T06:48:17;24.10;;;15.87;;
6842;SDS011;3460;52.028;8.916;2024-03-07T06:50:43;48.87;;;26.87;;
6842;SDS011;3460;52.028;8.916;2024-03-07T06:53:10;22.67;;;15.40;;
6842;SDS011;3460;52.028;8.916;2024-03-07T06:55:38;25.93;;;16.37;;
6842;SDS011;3460;52.028;8.916;2024-03-07T06:58:05;28.10;;;16.47;;
6842;SDS011;3460;52.028;8.916;2024-03-07T07:00:32;23.33;;;14.47;;
6842;SDS011;3460;52.028;8.916;2024-03-07T07:03:01;23.57;;;14.80;;
6842;SDS011;3460;52.028;8.916;2024-03-07T07:05:29;22.40;;;15.17;;
6842;SDS011;3460;52.028;8.916;2024-03-07T07:07:56;22.93;;;15.20;;
6842;SDS011;3460;52.028;8.916;2024-03-07T07:10:23;21.73;;;14.87;;
6842;SDS011;3460;52.028;8.916;2024-03-07T07:12:51;24.00;;;14.50;;
6842;SDS011;3460;52.028;8.916;2024-03-07T07:15:19;23.73;;;15.30;;
6842;SDS011;3460;52.028;8.916;2024-03-07T07:17:47;21.23;;;14.63;;
6842;SDS011;3460;52.028;8.916;2024-03-07T07:20:15;22.13;;;14.47;;
6842;SDS011;3460;52.028;8.916;2024-03-07T07:22:43;23.43;;;15.03;;
6842;SDS011;3460;52.028;8.916;2024-03-07T07:25:11;20.10;;;13.87;;
6842;SDS011;3460;52.028;8.916;2024-03-07T07:27:40;24.77;;;15.00;;
6842;SDS011;3460;52.028;8.916;2024-03-07T07:30:10;22.07;;;14.17;;
6842;SDS011;3460;52.028;8.916;2024-03-07T07:32:37;25.37;;;15.57;;
6842;SDS011;3460;52.028;8.916;2024-03-07T07:35:04;23.67;;;14.97;;
6842;SDS011;3460;52.028;8.916;2024-03-07T07:37:34;20.20;;;13.73;;
6842;SDS011;3460;52.028;8.916;2024-03-07T07:40:01;63.10;;;36.70;;
6842;SDS011;3460;52.028;8.916;2024-03-07T07:42:28;38.97;;;24.03;;
6842;SDS011;3460;52.028;8.916;2024-03-07T07:44:55;30.03;;;17.90;;
6842;SDS011;3460;52.028;8.916;2024-03-07T07:47:23;25.70;;;16.00;;
6842;SDS011;3460;52.028;8.916;2024-03-07T07:49:50;26.00;;;16.33;;
6842;SDS011;3460;52.028;8.916;2024-03-07T07:52:17;27.87;;;19.37;;
6842;SDS011;3460;52.028;8.916;2024-03-07T07:54:43;29.83;;;19.40;;
6842;SDS011;3460;52.028;8.916;2024-03-07T07:57:09;27.87;;;18.27;;
6842;SDS011;3460;52.028;8.916;2024-03-07T07:59:36;30.27;;;19.00;;
6842;SDS011;3460;52.028;8.916;2024-03-07T08:02:03;26.53;;;16.77;;
6842;SDS011;3460;52.028;8.916;2024-03-07T08:04:32;26.47;;;16.17;;
6842;SDS011;3460;52.028;8.916;2024-03-07T08:06:59;26.67;;;16.13;;
6842;SDS011;3460;52.028;8.916;2024-03-07T08:09:26;25.57;;;15.83;;
6842;SDS011;3460;52.028;8.916;2024-03-07T08:11:53;29.07;;;16.47;;
6842;SDS011;3460;52.028;8.916;2024-03-07T08:14:20;24.33;;;15.57;;
6842;SDS011;3460;52.028;8.916;2024-03-07T08:16:48;29.83;;;17.47;;
6842;SDS011;3460;52.028;8.916;2024-03-07T08:19:15;29.13;;;17.93;;
6842;SDS011;3460;52.028;8.916;2024-03-07T08:21:43;30.57;;;17.47;;
6842;SDS011;3460;52.028;8.916;2024-03-07T08:24:10;31.80;;;17.70;;
6842;SDS011;3460;52.028;8.916;2024-03-07T08:26:37;30.23;;;16.90;;
6842;SDS011;3460;52.028;8.916;2024-03-07T08:29:09;34.10;;;17.10;;
6842;SDS011;3460;52.028;8.916;2024-03-07T08:31:36;27.37;;;15.33;;
6842;SDS011;3460;52.028;8.916;2024-03-07T08:34:03;32.50;;;17.57;;
6842;SDS011;3460;52.028;8.916;2024-03-07T08:36:29;32.57;;;16.80;;
6842;SDS011;3460;52.028;8.916;2024-03-07T08:38:57;33.83;;;17.07;;
6842;SDS011;3460;52.028;8.916;2024-03-07T08:41:24;32.77;;;17.57;;
6842;SDS011;3460;52.028;8.916;2024-03-07T08:43:51;35.13;;;17.63;;
6842;SDS011;3460;52.028;8.916;2024-03-07T08:46:18;39.13;;;17.53;;
6842;SDS011;3460;52.028;8.916;2024-03-07T08:48:44;34.27;;;17.93;;
6842;SDS011;3460;52.028;8.916;2024-03-07T08:51:11;33.20;;;17.53;;
6842;SDS011;3460;52.028;8.916;2024-03-07T08:53:38;34.67;;;17.20;;
6842;SDS011;3460;52.028;8.916;2024-03-07T08:56:06;33.77;;;17.73;;
6842;SDS011;3460;52.028;8.916;2024-03-07T08:58:33;37.93;;;18.07;;
6842;SDS011;3460;52.028;8.916;2024-03-07T09:01:00;41.30;;;19.20;;
6842;SDS011;3460;52.028;8.916;2024-03-07T09:03:26;37.73;;;19.00;;
6842;SDS011;3460;52.028;8.916;2024-03-07T09:05:53;36.60;;;18.73;;
6842;SDS011;3460;52.028;8.916;2024-03-07T09:08:20;36.27;;;17.97;;
6842;SDS011;3460;52.028;8.916;2024-03-07T09:10:47;43.70;;;20.30;;
6842;SDS011;3460;52.028;8.916;2024-03-07T09:13:15;40.63;;;20.20;;
6842;SDS011;3460;52.028;8.916;2024-03-07T09:15:42;41.10;;;18.93;;
6842;SDS011;3460;52.028;8.916;2024-03-07T09:18:09;40.40;;;18.47;;
6842;SDS011;3460;52.028;8.916;2024-03-07T09:20:35;41.73;;;19.83;;
6842;SDS011;3460;52.028;8.916;2024-03-07T09:23:03;36.77;;;19.07;;
6842;SDS011;3460;52.028;8.916;2024-03-07T09:25:29;40.80;;;19.13;;
6842;SDS011;3460;52.028;8.916;2024-03-07T09:27:58;42.63;;;19.73;;
6842;SDS011;3460;52.028;8.916;2024-03-07T09:30:26;41.97;;;18.67;;
6842;SDS011;3460;52.028;8.916;2024-03-07T09:32:53;39.20;;;18.27;;
6842;SDS011;3460;52.028;8.916;2024-03-07T09:35:21;40.47;;;19.53;;
6842;SDS011;3460;52.028;8.916;2024-03-07T09:37:47;40.93;;;19.03;;
6842;SDS011;3460;52.028;8.916;2024-03-07T09:40:14;37.37;;;18.67;;
6842;SDS011;3460;52.028;8.916;2024-03-07T09:42:42;36.30;;;18.53;;
6842;SDS011;3460;52.028;8.916;2024-03-07T09:45:13;38.60;;;18.43;;
6842;SDS011;3460;52.028;8.916;2024-03-07T09:47:44;38.63;;;19.37;;
6842;SDS011;3460;52.028;8.916;2024-03-07T09:50:14;41.83;;;19.20;;
6842;SDS011;3460;52.028;8.916;2024-03-07T09:52:44;44.83;;;19.13;;
6842;SDS011;3460;52.028;8.916;2024-03-07T09:55:14;49.27;;;19.53;;
6842;SDS011;3460;52.028;8.916;2024-03-07T09:57:42;47.27;;;19.10;;
6842;SDS011;3460;52.028;8.916;2024-03-07T10:00:10;43.73;;;18.97;;
6842;SDS011;3460;52.028;8.916;2024-03-07T10:02:49;42.10;;;18.07;;
6842;SDS011;3460;52.028;8.916;2024-03-07T10:05:21;38.23;;;16.70;;
6842;SDS011;3460;52.028;8.916;2024-03-07T10:07:48;41.33;;;17.23;;
6842;SDS011;3460;52.028;8.916;2024-03-07T10:10:17;41.33;;;18.73;;
6842;SDS011;3460;52.028;8.916;2024-03-07T10:12:44;44.47;;;18.43;;
6842;SDS011;3460;52.028;8.916;2024-03-07T10:15:11;38.17;;;16.97;;
6842;SDS011;3460;52.028;8.916;2024-03-07T10:17:39;37.60;;;17.23;;
6842;SDS011;3460;52.028;8.916;2024-03-07T10:20:07;38.10;;;17.50;;
6842;SDS011;3460;52.028;8.916;2024-03-07T10:22:38;41.87;;;17.33;;
6842;SDS011;3460;52.028;8.916;2024-03-07T10:25:06;37.20;;;17.60;;
6842;SDS011;3460;52.028;8.916;2024-03-07T10:27:35;35.50;;;17.73;;
6842;SDS011;3460;52.028;8.916;2024-03-07T10:30:03;37.33;;;17.33;;
6842;SDS011;3460;52.028;8.916;2024-03-07T10:32:32;33.20;;;16.70;;
6842;SDS011;3460;52.028;8.916;2024-03-07T10:34:59;37.33;;;17.77;;
6842;SDS011;3460;52.028;8.916;2024-03-07T10:37:29;37.23;;;17.33;;
6842;SDS011;3460;52.028;8.916;2024-03-07T10:39:56;37.80;;;18.53;;
6842;SDS011;3460;52.028;8.916;2024-03-07T10:42:23;45.83;;;20.17;;
6842;SDS011;3460;52.028;8.916;2024-03-07T10:44:56;44.27;;;20.00;;
6842;SDS011;3460;52.028;8.916;2024-03-07T10:47:30;39.20;;;17.83;;
6842;SDS011;3460;52.028;8.916;2024-03-07T10:50:04;37.63;;;16.63;;
6842;SDS011;3460;52.028;8.916;2024-03-07T10:52:47;37.33;;;17.50;;
6842;SDS011;3460;52.028;8.916;2024-03-07T10:55:19;35.17;;;17.73;;
6842;SDS011;3460;52.028;8.916;2024-03-07T10:57:51;35.33;;;16.50;;
6842;SDS011;3460;52.028;8.916;2024-03-07T11:00:21;34.10;;;16.67;;
6842;SDS011;3460;52.028;8.916;2024-03-07T11:03:00;39.20;;;18.07;;
6842;SDS011;3460;52.028;8.916;2024-03-07T11:05:32;33.53;;;16.27;;
6842;SDS011;3460;52.028;8.916;2024-03-07T11:08:01;35.30;;;16.67;;
6842;SDS011;3460;52.028;8.916;2024-03-07T11:10:33;35.90;;;17.30;;
6842;SDS011;3460;52.028;8.916;2024-03-07T11:13:02;35.67;;;17.20;;
6842;SDS011;3460;52.028;8.916;2024-03-07T11:15:30;31.40;;;15.50;;
6842;SDS011;3460;52.028;8.916;2024-03-07T11:17:59;36.17;;;14.90;;
6842;SDS011;3460;52.028;8.916;2024-03-07T11:20:26;35.57;;;16.40;;
6842;SDS011;3460;52.028;8.916;2024-03-07T11:23:02;36.60;;;16.77;;
6842;SDS011;3460;52.028;8.916;2024-03-07T11:25:53;32.50;;;15.80;;
6842;SDS011;3460;52.028;8.916;2024-03-07T11:28:27;34.70;;;17.53;;
6842;SDS011;3460;52.028;8.916;2024-03-07T11:31:06;32.73;;;15.43;;
6842;SDS011;3460;52.028;8.916;2024-03-07T11:33:34;34.60;;;16.53;;
6842;SDS011;3460;52.028;8.916;2024-03-07T11:36:05;35.20;;;16.17;;
6842;SDS011;3460;52.028;8.916;2024-03-07T11:38:34;35.40;;;16.33;;
6842;SDS011;3460;52.028;8.916;2024-03-07T11:41:00;35.27;;;17.00;;
6842;SDS011;3460;52.028;8.916;2024-03-07T11:43:29;31.67;;;17.03;;
6842;SDS011;3460;52.028;8.916;2024-03-07T11:45:56;37.10;;;16.60;;
6842;SDS011;3460;52.028;8.916;2024-03-07T11:48:23;33.30;;;17.17;;
6842;SDS011;3460;52.028;8.916;2024-03-07T11:50:50;34.87;;;16.43;;
6842;SDS011;3460;52.028;8.916;2024-03-07T11:53:17;30.83;;;15.90;;
6842;SDS011;3460;52.028;8.916;2024-03-07T11:55:45;35.77;;;16.60;;
6842;SDS011;3460;52.028;8.916;2024-03-07T11:58:13;38.00;;;16.13;;
6842;SDS011;3460;52.028;8.916;2024-03-07T12:00:41;33.63;;;15.73;;
6842;SDS011;3460;52.028;8.916;2024-03-07T12:03:10;42.87;;;16.83;;
6842;SDS011;3460;52.028;8.916;2024-03-07T12:05:39;32.93;;;16.37;;
6842;SDS011;3460;52.028;8.916;2024-03-07T12:08:07;35.93;;;15.97;;
6842;SDS011;3460;52.028;8.916;2024-03-07T12:10:36;36.17;;;16.77;;
6842;SDS011;3460;52.028;8.916;2024-03-07T12:13:05;36.50;;;17.23;;
6842;SDS011;3460;52.028;8.916;2024-03-07T12:15:32;33.17;;;17.13;;
6842;SDS011;3460;52.028;8.916;2024-03-07T12:18:00;35.77;;;16.57;;
6842;SDS011;3460;52.028;8.916;2024-03-07T12:20:33;33.77;;;16.40;;
6842;SDS011;3460;52.028;8.916;2024-03-07T12:23:01;29.63;;;14.80;;
6842;SDS011;3460;52.028;8.916;2024-03-07T12:25:30;33.90;;;15.73;;
6842;SDS011;3460;52.028;8.916;2024-03-07T12:28:06;32.07;;;16.00;;
6842;SDS011;3460;52.028;8.916;2024-03-07T12:30:46;32.33;;;16.07;;
6842;SDS011;3460;52.028;8.916;2024-03-07T12:33:16;34.97;;;15.93;;
6842;SDS011;3460;52.028;8.916;2024-03-07T12:35:43;31.73;;;14.83;;
6842;SDS011;3460;52.028;8.916;2024-03-07T12:38:10;35.40;;;15.10;;
6842;SDS011;3460;52.028;8.916;2024-03-07T12:40:40;31.13;;;16.13;;
6842;SDS011;3460;52.028;8.916;2024-03-07T12:43:15;34.40;;;14.90;;
6842;SDS011;3460;52.028;8.916;2024-03-07T12:45:53;34.80;;;17.13;;
6842;SDS011;3460;52.028;8.916;2024-03-07T12:48:20;30.87;;;15.63;;
6842;SDS011;3460;52.028;8.916;2024-03-07T12:50:47;33.93;;;16.03;;
6842;SDS011;3460;52.028;8.916;2024-03-07T12:53:18;34.47;;;16.67;;
6842;SDS011;3460;52.028;8.916;2024-03-07T12:55:45;34.17;;;16.27;;
6842;SDS011;3460;52.028;8.916;2024-03-07T12:58:12;36.60;;;17.00;;
6842;SDS011;3460;52.028;8.916;2024-03-07T13:00:40;32.50;;;16.37;;
6842;SDS011;3460;52.028;8.916;2024-03-07T13:03:07;34.33;;;16.37;;
6842;SDS011;3460;52.028;8.916;2024-03-07T13:05:34;34.87;;;16.40;;
6842;SDS011;3460;52.028;8.916;2024-03-07T13:08:05;35.60;;;16.50;;
6842;SDS011;3460;52.028;8.916;2024-03-07T13:10:36;33.67;;;15.43;;
6842;SDS011;3460;52.028;8.916;2024-03-07T13:13:03;32.80;;;16.33;;
6842;SDS011;3460;52.028;8.916;2024-03-07T13:15:30;31.53;;;16.30;;
6842;SDS011;3460;52.028;8.916;2024-03-07T13:17:58;36.77;;;16.23;;
6842;SDS011;3460;52.028;8.916;2024-03-07T13:20:25;34.40;;;16.67;;
6842;SDS011;3460;52.028;8.916;2024-03-07T13:22:52;36.93;;;16.83;;
6842;SDS011;3460;52.028;8.916;2024-03-07T13:25:20;30.07;;;14.97;;
6842;SDS011;3460;52.028;8.916;2024-03-07T13:27:51;32.00;;;15.17;;
6842;SDS011;3460;52.028;8.916;2024-03-07T13:30:22;31.77;;;15.13;;
6842;SDS011;3460;52.028;8.916;2024-03-07T13:32:52;32.10;;;16.40;;
6842;SDS011;3460;52.028;8.916;2024-03-07T13:35:21;31.77;;;14.00;;
6842;SDS011;3460;52.028;8.916;2024-03-07T13:37:49;30.37;;;15.43;;
6842;SDS011;3460;52.028;8.916;2024-03-07T13:40:17;30.07;;;15.37;;
6842;SDS011;3460;52.028;8.916;2024-03-07T13:42:50;34.20;;;15.67;;
6842;SDS011;3460;52.028;8.916;2024-03-07T13:45:18;41.10;;;17.93;;
6842;SDS011;3460;52.028;8.916;2024-03-07T13:47:51;36.77;;;16.50;;
6842;SDS011;3460;52.028;8.916;2024-03-07T13:50:19;35.23;;;16.53;;
6842;SDS011;3460;52.028;8.916;2024-03-07T13:52:49;36.23;;;16.20;;
6842;SDS011;3460;52.028;8.916;2024-03-07T13:55:38;38.73;;;16.57;;
6842;SDS011;3460;52.028;8.916;2024-03-07T13:58:12;34.67;;;17.13;;
6842;SDS011;3460;52.028;8.916;2024-03-07T14:00:46;34.70;;;16.70;;
6842;SDS011;3460;52.028;8.916;2024-03-07T14:06:18;34.20;;;17.60;;
6842;SDS011;3460;52.028;8.916;2024-03-07T14:09:12;33.97;;;16.37;;
6842;SDS011;3460;52.028;8.916;2024-03-07T14:12:28;31.80;;;16.70;;
6842;SDS011;3460;52.028;8.916;2024-03-07T14:18:17;30.67;;;14.90;;
6842;SDS011;3460;52.028;8.916;2024-03-07T14:21:10;27.93;;;14.63;;
6842;SDS011;3460;52.028;8.916;2024-03-07T14:24:06;29.83;;;14.30;;
6842;SDS011;3460;52.028;8.916;2024-03-07T14:27:04;27.43;;;14.43;;
6842;SDS011;3460;52.028;8.916;2024-03-07T14:29:51;36.97;;;15.90;;
6842;SDS011;3460;52.028;8.916;2024-03-07T14:32:31;27.10;;;14.70;;
6842;SDS011;3460;52.028;8.916;2024-03-07T14:35:00;31.03;;;15.53;;
6842;SDS011;3460;52.028;8.916;2024-03-07T14:37:36;26.73;;;14.60;;
6842;SDS011;3460;52.028;8.916;2024-03-07T14:40:12;28.23;;;13.47;;
6842;SDS011;3460;52.028;8.916;2024-03-07T14:42:42;27.20;;;14.07;;
6842;SDS011;3460;52.028;8.916;2024-03-07T14:45:11;28.53;;;14.87;;
6842;SDS011;3460;52.028;8.916;2024-03-07T14:47:41;27.67;;;14.33;;
6842;SDS011;3460;52.028;8.916;2024-03-07T14:50:10;29.00;;;14.13;;
6842;SDS011;3460;52.028;8.916;2024-03-07T14:52:39;25.63;;;12.97;;
6842;SDS011;3460;52.028;8.916;2024-03-07T14:55:06;22.60;;;11.57;;
6842;SDS011;3460;52.028;8.916;2024-03-07T14:57:36;18.70;;;11.57;;
6842;SDS011;3460;52.028;8.916;2024-03-07T15:00:04;18.37;;;10.93;;
6842;SDS011;3460;52.028;8.916;2024-03-07T15:02:42;23.33;;;12.57;;
6842;SDS011;3460;52.028;8.916;2024-03-07T15:05:10;29.47;;;14.17;;